createdAt,value
2023-05-03T00:00:16.557Z,95688.59
2023-05-03T00:02:44.926Z,95695.88
2023-05-03T00:05:12.924Z,95686.75
2023-05-03T00:07:41.946Z,95683.91
2023-05-03T00:10:10.302Z,95683.38
2023-05-03T00:12:40.688Z,95684.31
2023-05-03T00:15:08.923Z,95681.88
2023-05-03T00:17:38.660Z,95686.91
2023-05-03T00:20:06.447Z,95686.59
2023-05-03T00:22:33.377Z,95687.50
2023-05-03T00:25:00.658Z,95685.66
2023-05-03T00:27:27.188Z,95683.09
2023-05-03T00:29:54.037Z,95681.38
2023-05-03T00:32:22.750Z,95685.28
2023-05-03T00:34:54.124Z,95683.63
2023-05-03T00:37:21.228Z,95676.88
2023-05-03T00:39:48.223Z,95682.19
2023-05-03T00:42:15.394Z,95676.25
2023-05-03T00:44:42.299Z,95672.47
2023-05-03T00:47:10.232Z,95675.94
2023-05-03T00:49:37.201Z,95673.59
2023-05-03T00:52:04.019Z,95672.47
2023-05-03T00:54:30.817Z,95665.09
2023-05-03T00:56:57.832Z,95663.66
2023-05-03T00:59:24.784Z,95658.66
2023-05-03T01:01:53.005Z,95662.75
2023-05-03T01:04:21.622Z,95661.53
2023-05-03T01:06:57.949Z,95658.66
2023-05-03T01:09:33.944Z,95660.00
2023-05-03T01:12:12.861Z,95668.22
2023-05-03T01:14:51.523Z,95656.03
2023-05-03T01:17:22.127Z,95662.50
2023-05-03T01:19:52.065Z,95662.41
2023-05-03T01:22:56.302Z,95657.28
2023-05-03T01:25:23.048Z,95653.19
2023-05-03T01:27:49.937Z,95653.41
2023-05-03T01:30:17.141Z,95653.13
2023-05-03T01:33:06.032Z,95648.78
2023-05-03T01:35:37.211Z,95654.03
2023-05-03T01:38:04.948Z,95655.47
2023-05-03T01:40:39.236Z,95652.28
2023-05-03T01:43:07.634Z,95649.72
2023-05-03T01:45:34.693Z,95654.63
2023-05-03T01:48:01.395Z,95651.16
2023-05-03T01:50:27.952Z,95657.31
2023-05-03T01:52:54.778Z,95648.91
2023-05-03T01:55:21.332Z,95649.41
2023-05-03T01:57:47.881Z,95655.25
2023-05-03T02:00:14.733Z,95652.59
2023-05-03T02:02:41.352Z,95653.09
2023-05-03T02:05:09.494Z,95650.31
2023-05-03T02:07:36.230Z,95653.81
2023-05-03T02:10:03.086Z,95656.25
2023-05-03T02:12:30.069Z,95659.03
2023-05-03T02:14:56.586Z,95660.28
2023-05-03T02:17:26.646Z,95663.84
2023-05-03T02:19:53.760Z,95665.59
2023-05-03T02:22:20.538Z,95667.84
2023-05-03T02:24:47.848Z,95666.31
2023-05-03T02:27:15.134Z,95672.06
2023-05-03T02:29:43.034Z,95679.22
2023-05-03T02:32:10.199Z,95671.72
2023-05-03T02:34:36.768Z,95677.16
2023-05-03T02:37:04.305Z,95677.56
2023-05-03T02:39:31.435Z,95676.03
2023-05-03T02:41:58.151Z,95680.03
2023-05-03T02:44:25.118Z,95675.31
2023-05-03T02:46:51.862Z,95676.94
2023-05-03T02:49:18.385Z,95679.41
2023-05-03T02:51:45.048Z,95680.88
2023-05-03T02:54:12.241Z,95679.72
2023-05-03T02:56:39.427Z,95679.72
2023-05-03T02:59:06.198Z,95679.00
2023-05-03T03:01:34.116Z,95682.47
2023-05-03T03:04:01.021Z,95679.41
2023-05-03T03:06:28.239Z,95677.97
2023-05-03T03:08:55.262Z,95674.59
2023-05-03T03:11:22.316Z,95670.41
2023-05-03T03:13:49.032Z,95672.13
2023-05-03T03:16:15.991Z,95670.81
2023-05-03T03:18:42.854Z,95670.72
2023-05-03T03:21:09.876Z,95665.19
2023-05-03T03:23:37.120Z,95663.09
2023-05-03T03:26:03.988Z,95666.19
2023-05-03T03:28:30.763Z,95670.19
2023-05-03T03:31:00.668Z,95673.34
2023-05-03T03:33:27.282Z,95667.69
2023-05-03T03:35:59.437Z,95665.50
2023-05-03T03:38:31.002Z,95670.88
2023-05-03T03:41:02.559Z,95678.25
2023-05-03T03:43:29.451Z,95670.56
2023-05-03T03:45:56.992Z,95673.00
2023-05-03T03:48:23.581Z,95673.25
2023-05-03T03:50:50.801Z,95671.31
2023-05-03T03:53:19.192Z,95671.41
2023-05-03T03:55:46.813Z,95668.34
2023-05-03T03:58:15.374Z,95670.91
2023-05-03T04:00:42.846Z,95666.72
2023-05-03T04:03:14.177Z,95673.25
2023-05-03T04:05:41.721Z,95675.09
2023-05-03T04:08:09.352Z,95668.22
2023-05-03T04:10:36.765Z,95680.75
2023-05-03T04:13:04.413Z,95679.00
2023-05-03T04:15:31.202Z,95670.72
2023-05-03T04:18:00.003Z,95670.06
2023-05-03T04:20:27.173Z,95678.38
2023-05-03T04:22:54.312Z,95684.00
2023-05-03T04:25:25.840Z,95676.63
2023-05-03T04:27:58.743Z,95677.69
2023-05-03T04:30:26.547Z,95681.56
2023-05-03T04:32:59.466Z,95690.34
2023-05-03T04:35:28.874Z,95687.06
2023-05-03T04:37:57.523Z,95688.91
2023-05-03T04:40:26.326Z,95697.31
2023-05-03T04:43:04.203Z,95688.50
2023-05-03T04:45:34.320Z,95692.06
2023-05-03T04:48:01.893Z,95696.38
2023-05-03T04:50:28.995Z,95704.66
2023-05-03T04:52:55.605Z,95703.16
2023-05-03T04:55:24.688Z,95698.75
2023-05-03T04:57:52.330Z,95697.50
2023-05-03T05:00:19.203Z,95697.16
2023-05-03T05:02:51.827Z,95703.00
2023-05-03T05:05:20.581Z,95708.72
2023-05-03T05:07:47.728Z,95715.13
2023-05-03T05:10:16.750Z,95709.38
2023-05-03T05:12:43.751Z,95710.69
2023-05-03T05:15:11.223Z,95712.75
2023-05-03T05:17:39.099Z,95712.09
2023-05-03T05:20:12.144Z,95709.25
2023-05-03T05:22:42.008Z,95710.91
2023-05-03T05:25:08.957Z,95717.34
2023-05-03T05:27:36.316Z,95718.81
2023-05-03T05:30:05.184Z,95728.13
2023-05-03T05:32:33.543Z,95729.28
2023-05-03T05:35:01.095Z,95725.59
2023-05-03T05:37:28.607Z,95731.50
2023-05-03T05:39:58.850Z,95728.63
2023-05-03T05:42:28.280Z,95731.81
2023-05-03T05:44:55.230Z,95732.19
2023-05-03T05:47:22.248Z,95735.50
2023-05-03T05:49:51.186Z,95730.56
2023-05-03T05:52:17.796Z,95736.22
2023-05-03T05:54:44.601Z,95731.06
2023-05-03T05:57:12.596Z,95733.09
2023-05-03T05:59:39.435Z,95737.56
2023-05-03T06:02:14.824Z,95735.03
2023-05-03T06:04:41.744Z,95738.22
2023-05-03T06:07:08.406Z,95741.09
2023-05-03T06:09:35.106Z,95741.75
2023-05-03T06:12:03.589Z,95733.38
2023-05-03T06:14:32.289Z,95736.78
2023-05-03T06:17:00.646Z,95741.22
2023-05-03T06:19:27.352Z,95736.50
2023-05-03T06:21:54.248Z,95741.09
2023-05-03T06:24:21.896Z,95741.47
2023-05-03T06:26:51.690Z,95747.25
2023-05-03T06:29:18.632Z,95738.53
2023-05-03T06:31:45.846Z,95743.34
2023-05-03T06:34:13.156Z,95739.28
2023-05-03T06:36:41.683Z,95743.03
2023-05-03T06:39:09.524Z,95752.97
2023-05-03T06:41:36.150Z,95752.13
2023-05-03T06:44:04.253Z,95750.25
2023-05-03T06:46:30.999Z,95745.44
2023-05-03T06:48:57.824Z,95744.84
2023-05-03T06:51:30.092Z,95743.19
2023-05-03T06:54:02.019Z,95746.97
2023-05-03T06:56:28.911Z,95751.19
2023-05-03T06:58:55.535Z,95759.78
2023-05-03T07:01:23.252Z,95756.31
2023-05-03T07:03:49.977Z,95752.34
2023-05-03T07:06:16.932Z,95755.75
2023-05-03T07:08:43.607Z,95747.56
2023-05-03T07:11:10.605Z,95742.53
2023-05-03T07:13:37.533Z,95739.34
2023-05-03T07:16:04.362Z,95747.09
2023-05-03T07:18:31.077Z,95744.13
2023-05-03T07:20:57.602Z,95741.44
2023-05-03T07:23:24.462Z,95745.00
2023-05-03T07:25:51.570Z,95750.53
2023-05-03T07:28:18.219Z,95746.53
2023-05-03T07:30:45.105Z,95744.66
2023-05-03T07:33:12.120Z,95746.03
2023-05-03T07:35:38.761Z,95747.97
2023-05-03T07:38:05.525Z,95754.44
2023-05-03T07:40:33.432Z,95757.38
2023-05-03T07:43:00.678Z,95754.16
2023-05-03T07:45:27.655Z,95754.88
2023-05-03T07:47:55.463Z,95760.31
2023-05-03T07:50:22.423Z,95753.84
2023-05-03T07:52:51.784Z,95751.97
2023-05-03T07:55:20.295Z,95750.44
2023-05-03T07:57:47.064Z,95754.41
2023-05-03T08:00:14.817Z,95743.44
2023-05-03T08:02:41.920Z,95744.91
2023-05-03T08:05:10.590Z,95748.78
2023-05-03T08:07:37.256Z,95741.03
2023-05-03T08:10:04.512Z,95742.94
2023-05-03T08:12:31.336Z,95742.50
2023-05-03T08:14:58.258Z,95744.25
2023-05-03T08:17:24.856Z,95742.47
2023-05-03T08:19:52.228Z,95738.75
2023-05-03T08:22:18.733Z,95731.63
2023-05-03T08:24:45.323Z,95732.84
2023-05-03T08:27:12.551Z,95723.06
2023-05-03T08:29:39.195Z,95730.28
2023-05-03T08:32:06.015Z,95731.34
2023-05-03T08:34:32.709Z,95732.53
2023-05-03T08:36:59.551Z,95737.97
2023-05-03T08:39:26.777Z,95738.63
2023-05-03T08:41:55.094Z,95732.19
2023-05-03T08:44:23.279Z,95733.94
2023-05-03T08:46:51.605Z,95729.75
2023-05-03T08:49:18.579Z,95730.81
2023-05-03T08:51:47.323Z,95725.97
2023-05-03T08:54:18.264Z,95732.91
2023-05-03T08:56:46.535Z,95735.47
2023-05-03T08:59:14.050Z,95730.44
2023-05-03T09:01:41.828Z,95734.25
2023-05-03T09:04:10.261Z,95736.16
2023-05-03T09:06:37.913Z,95726.88
2023-05-03T09:09:09.151Z,95733.38
2023-05-03T09:11:38.321Z,95731.84
2023-05-03T09:14:13.884Z,95737.75
2023-05-03T09:16:42.709Z,95735.50
2023-05-03T09:19:11.727Z,95742.00
2023-05-03T09:21:40.411Z,95732.28
2023-05-03T09:24:25.338Z,95737.94
2023-05-03T09:26:53.125Z,95732.97
2023-05-03T09:29:35.988Z,95734.03
2023-05-03T09:32:06.450Z,95727.69
2023-05-03T09:34:35.261Z,95726.56
2023-05-03T09:37:01.952Z,95721.19
2023-05-03T09:39:28.614Z,95713.88
2023-05-03T09:41:55.211Z,95715.00
2023-05-03T09:44:41.581Z,95706.41
2023-05-03T09:47:08.392Z,95705.56
2023-05-03T09:49:38.775Z,95708.88
2023-05-03T09:52:07.026Z,95708.00
2023-05-03T09:54:36.915Z,95702.97
2023-05-03T09:57:05.853Z,95713.25
2023-05-03T09:59:37.668Z,95709.31
2023-05-03T10:02:07.686Z,95709.50
2023-05-03T10:04:51.230Z,95700.53
2023-05-03T10:07:20.389Z,95701.44
2023-05-03T10:09:48.240Z,95705.69
2023-05-03T10:12:17.596Z,95702.31
2023-05-03T10:14:46.462Z,95700.56
2023-05-03T10:17:18.950Z,95700.56
2023-05-03T10:19:53.085Z,95699.09
2023-05-03T10:22:19.673Z,95694.00
2023-05-03T10:25:01.699Z,95691.66
2023-05-03T10:27:43.089Z,95696.75
2023-05-03T10:30:28.562Z,95692.22
2023-05-03T10:32:55.836Z,95701.94
2023-05-03T10:35:27.108Z,95686.88
2023-05-03T10:37:54.215Z,95692.41
2023-05-03T10:40:22.305Z,95697.81
2023-05-03T10:42:54.151Z,95696.31
2023-05-03T10:45:26.958Z,95687.22
2023-05-03T10:48:12.055Z,95685.41
2023-05-03T10:50:40.126Z,95693.38
2023-05-03T10:53:07.083Z,95689.44
2023-05-03T10:55:34.703Z,95693.44
2023-05-03T10:58:03.867Z,95691.41
2023-05-03T11:00:33.665Z,95690.91
2023-05-03T11:03:18.533Z,95692.59
2023-05-03T11:05:47.901Z,95687.28
2023-05-03T11:08:19.644Z,95695.94
2023-05-03T11:10:48.411Z,95681.66
2023-05-03T11:13:16.298Z,95677.31
2023-05-03T11:15:43.057Z,95673.50
2023-05-03T11:18:13.588Z,95681.69
2023-05-03T11:20:40.688Z,95678.31
2023-05-03T11:23:07.437Z,95681.50
2023-05-03T11:25:34.681Z,95684.97
2023-05-03T11:28:02.267Z,95685.16
2023-05-03T11:30:30.300Z,95681.41
2023-05-03T11:32:58.244Z,95677.56
2023-05-03T11:35:26.887Z,95673.06
2023-05-03T11:37:54.185Z,95668.91
2023-05-03T11:40:21.417Z,95668.47
2023-05-03T11:43:14.348Z,95671.09
2023-05-03T11:45:44.058Z,95674.94
2023-05-03T11:48:12.306Z,95674.84
2023-05-03T11:50:54.413Z,95670.91
2023-05-03T11:53:26.346Z,95667.50
2023-05-03T11:55:54.259Z,95676.63
2023-05-03T11:58:26.639Z,95676.63
2023-05-03T12:00:56.217Z,95671.34
2023-05-03T12:03:30.213Z,95674.94
2023-05-03T12:05:59.558Z,95663.13
2023-05-03T12:08:32.264Z,95662.84
2023-05-03T12:11:03.351Z,95662.53
2023-05-03T12:13:37.754Z,95661.66
2023-05-03T12:16:12.662Z,95657.63
2023-05-03T12:18:50.907Z,95658.81
2023-05-03T12:23:50.475Z,95653.88
2023-05-03T12:26:21.480Z,95653.16
2023-05-03T12:28:48.749Z,95650.41
2023-05-03T12:31:17.869Z,95644.13
2023-05-03T12:33:55.494Z,95649.53
2023-05-03T12:36:35.641Z,95647.53
2023-05-03T12:39:05.721Z,95631.53
2023-05-03T12:42:05.539Z,95630.00
2023-05-03T12:44:23.845Z,95633.56
2023-05-03T12:46:52.864Z,95637.91
2023-05-03T12:49:22.862Z,95632.19
2023-05-03T12:52:09.075Z,95625.41
2023-05-03T12:54:41.605Z,95625.09
2023-05-03T12:57:15.686Z,95628.13
2023-05-03T12:59:43.634Z,95620.91
2023-05-03T13:04:57.756Z,95610.91
2023-05-03T13:07:29.733Z,95613.66
2023-05-03T13:12:29.285Z,95609.84
2023-05-03T13:14:55.988Z,95611.13
2023-05-03T13:17:23.399Z,95604.53
2023-05-03T13:19:52.434Z,95600.88
2023-05-03T13:22:19.092Z,95601.09
2023-05-03T13:24:48.292Z,95597.13
2023-05-03T13:27:16.291Z,95592.34
2023-05-03T13:29:43.197Z,95588.03
2023-05-03T13:32:09.913Z,95593.78
2023-05-03T13:34:36.811Z,95584.34
2023-05-03T13:37:04.429Z,95582.44
2023-05-03T13:39:31.697Z,95576.03
2023-05-03T13:41:58.438Z,95580.50
2023-05-03T13:44:25.437Z,95573.63
2023-05-03T13:46:52.840Z,95573.28
2023-05-03T13:49:19.726Z,95573.66
2023-05-03T13:51:46.407Z,95575.97
2023-05-03T13:54:13.371Z,95567.13
2023-05-03T13:56:41.584Z,95571.25
2023-05-03T13:59:09.738Z,95563.16
2023-05-03T14:01:37.399Z,95567.28
2023-05-03T14:04:05.343Z,95564.25
2023-05-03T14:06:33.595Z,95565.16
2023-05-03T14:09:01.958Z,95569.00
2023-05-03T14:11:30.754Z,95565.25
2023-05-03T14:13:58.477Z,95557.81
2023-05-03T14:16:40.060Z,95557.88
2023-05-03T14:19:10.805Z,95554.09
2023-05-03T14:21:38.321Z,95563.66
2023-05-03T14:24:06.400Z,95555.88
2023-05-03T14:26:33.984Z,95545.75
2023-05-03T14:29:01.022Z,95545.13
2023-05-03T14:31:28.012Z,95549.28
2023-05-03T14:33:55.307Z,95548.94
2023-05-03T14:36:22.046Z,95542.44
2023-05-03T14:38:48.751Z,95536.88
2023-05-03T14:41:16.174Z,95535.16
2023-05-03T14:43:42.699Z,95528.75
2023-05-03T14:46:10.211Z,95530.50
2023-05-03T14:48:38.162Z,95530.44
2023-05-03T14:51:05.520Z,95528.75
2023-05-03T14:53:32.435Z,95526.00
2023-05-03T14:55:59.415Z,95525.59
2023-05-03T14:58:26.526Z,95520.16
2023-05-03T15:00:53.558Z,95523.81
2023-05-03T15:03:20.263Z,95529.69
2023-05-03T15:05:48.850Z,95519.31
2023-05-03T15:08:17.313Z,95516.66
2023-05-03T15:10:47.678Z,95519.34
2023-05-03T15:13:15.835Z,95524.53
2023-05-03T15:15:46.072Z,95531.19
2023-05-03T15:18:14.606Z,95516.59
2023-05-03T15:20:41.484Z,95526.50
2023-05-03T15:23:08.213Z,95527.84
2023-05-03T15:25:35.521Z,95529.56
2023-05-03T15:28:04.789Z,95534.09
2023-05-03T15:30:32.655Z,95543.91
2023-05-03T15:32:59.646Z,95534.72
2023-05-03T15:35:27.237Z,95533.38
2023-05-03T15:37:53.803Z,95539.97
2023-05-03T15:40:23.125Z,95532.59
2023-05-03T15:42:51.854Z,95528.22
2023-05-03T15:45:19.014Z,95528.66
2023-05-03T15:47:46.144Z,95521.81
2023-05-03T15:50:12.942Z,95524.25
2023-05-03T15:52:39.784Z,95523.44
2023-05-03T15:55:08.328Z,95528.34
2023-05-03T15:57:34.968Z,95524.31
2023-05-03T16:00:01.935Z,95513.66
2023-05-03T16:02:34.027Z,95510.72
2023-05-03T16:05:00.799Z,95506.69
2023-05-03T16:07:27.810Z,95509.50
2023-05-03T16:09:54.361Z,95518.47
2023-05-03T16:12:21.357Z,95512.47
2023-05-03T16:14:48.095Z,95510.66
2023-05-03T16:17:14.644Z,95511.66
2023-05-03T16:19:41.377Z,95513.41
2023-05-03T16:22:08.009Z,95514.66
2023-05-03T16:24:35.032Z,95510.78
2023-05-03T16:27:03.616Z,95514.09
2023-05-03T16:29:30.405Z,95513.13
2023-05-03T16:31:57.081Z,95515.34
2023-05-03T16:34:23.886Z,95511.09
2023-05-03T16:36:50.762Z,95512.91
2023-05-03T16:39:18.035Z,95510.66
2023-05-03T16:41:44.665Z,95512.47
2023-05-03T16:44:11.602Z,95518.03
2023-05-03T16:46:40.095Z,95520.53
2023-05-03T16:49:07.187Z,95519.91
2023-05-03T16:51:33.948Z,95512.00
2023-05-03T16:54:02.456Z,95519.56
2023-05-03T16:56:31.182Z,95520.47
2023-05-03T16:58:59.257Z,95520.75
2023-05-03T17:01:26.440Z,95515.88
2023-05-03T17:03:53.480Z,95516.34
2023-05-03T17:06:20.463Z,95518.22
2023-05-03T17:08:47.348Z,95509.81
2023-05-03T17:11:14.601Z,95504.84
2023-05-03T17:13:41.643Z,95510.03
2023-05-03T17:16:15.148Z,95511.41
2023-05-03T17:18:42.300Z,95511.03
2023-05-03T17:21:10.264Z,95511.28
2023-05-03T17:23:39.403Z,95511.50
2023-05-03T17:26:09.037Z,95514.78
2023-05-03T17:28:36.606Z,95516.59
2023-05-03T17:31:03.785Z,95514.19
2023-05-03T17:33:30.394Z,95516.47
2023-05-03T17:35:57.157Z,95519.41
2023-05-03T17:38:23.978Z,95507.72
2023-05-03T17:40:50.824Z,95517.28
2023-05-03T17:43:17.881Z,95519.56
2023-05-03T17:45:47.402Z,95522.28
2023-05-03T17:48:14.467Z,95523.72
2023-05-03T17:50:43.095Z,95527.28
2023-05-03T17:53:09.739Z,95523.06
2023-05-03T17:55:38.030Z,95524.19
2023-05-03T17:58:06.226Z,95516.69
2023-05-03T18:00:33.649Z,95521.56
2023-05-03T18:03:00.775Z,95524.91
2023-05-03T18:05:27.581Z,95532.50
2023-05-03T18:07:54.347Z,95528.72
2023-05-03T18:10:21.252Z,95529.81
2023-05-03T18:12:48.121Z,95530.25
2023-05-03T18:15:15.932Z,95527.34
2023-05-03T18:17:43.298Z,95527.28
2023-05-03T18:20:10.582Z,95525.75
2023-05-03T18:22:37.788Z,95523.31
2023-05-03T18:25:07.443Z,95531.38
2023-05-03T18:27:37.360Z,95521.94
2023-05-03T18:30:06.635Z,95525.63
2023-05-03T18:32:34.574Z,95526.47
2023-05-03T18:35:02.511Z,95537.00
2023-05-03T18:37:29.455Z,95533.66
2023-05-03T18:39:56.212Z,95537.81
2023-05-03T18:42:23.046Z,95534.38
2023-05-03T18:44:49.952Z,95544.81
2023-05-03T18:47:20.628Z,95546.94
2023-05-03T18:49:53.072Z,95546.25
2023-05-03T18:52:20.794Z,95548.22
2023-05-03T18:54:47.886Z,95547.72
2023-05-03T18:57:14.475Z,95556.88
2023-05-03T18:59:52.438Z,95553.22
2023-05-03T19:02:25.304Z,95564.41
2023-05-03T19:04:52.685Z,95566.19
2023-05-03T19:07:19.520Z,95561.34
2023-05-03T19:09:46.246Z,95565.16
2023-05-03T19:12:13.622Z,95562.56
2023-05-03T19:14:43.305Z,95560.69
2023-05-03T19:17:09.918Z,95566.41
2023-05-03T19:19:36.599Z,95563.66
2023-05-03T19:22:03.567Z,95560.97
2023-05-03T19:24:30.192Z,95565.59
2023-05-03T19:26:56.872Z,95564.41
2023-05-03T19:29:23.491Z,95563.47
2023-05-03T19:31:53.298Z,95570.09
2023-05-03T19:34:20.350Z,95571.59
2023-05-03T19:36:46.929Z,95570.22
2023-05-03T19:39:13.621Z,95564.66
2023-05-03T19:41:40.199Z,95568.31
2023-05-03T19:44:06.913Z,95557.31
2023-05-03T19:46:33.968Z,95560.31
2023-05-03T19:49:01.373Z,95563.13
2023-05-03T19:51:28.619Z,95558.66
2023-05-03T19:53:56.092Z,95565.53
2023-05-03T19:56:25.066Z,95563.38
2023-05-03T19:58:51.950Z,95569.06
2023-05-03T20:01:18.669Z,95573.00
2023-05-03T20:03:46.602Z,95571.06
2023-05-03T20:06:14.049Z,95568.06
2023-05-03T20:08:41.104Z,95570.91
2023-05-03T20:11:07.887Z,95566.13
2023-05-03T20:13:34.453Z,95570.50
2023-05-03T20:16:08.272Z,95579.81
2023-05-03T20:18:35.164Z,95572.06
2023-05-03T20:21:03.320Z,95576.81
2023-05-03T20:23:29.970Z,95580.84
2023-05-03T20:25:57.149Z,95575.03
2023-05-03T20:28:24.071Z,95574.44
2023-05-03T20:30:50.766Z,95572.94
2023-05-03T20:33:17.405Z,95570.50
2023-05-03T20:35:44.214Z,95579.69
2023-05-03T20:38:10.863Z,95577.22
2023-05-03T20:40:37.372Z,95570.88
2023-05-03T20:43:04.350Z,95575.34
2023-05-03T20:45:31.783Z,95571.66
2023-05-03T20:47:58.350Z,95566.88
2023-05-03T20:50:24.931Z,95571.47
2023-05-03T20:52:51.703Z,95566.59
2023-05-03T20:55:18.387Z,95567.16
2023-05-03T20:57:45.083Z,95572.31
2023-05-03T21:00:12.489Z,95567.41
2023-05-03T21:02:39.408Z,95569.91
2023-05-03T21:05:06.509Z,95560.03
2023-05-03T21:07:33.057Z,95561.91
2023-05-03T21:09:59.744Z,95562.72
2023-05-03T21:12:26.673Z,95557.44
2023-05-03T21:14:53.350Z,95554.03
2023-05-03T21:17:20.017Z,95551.84
2023-05-03T21:19:46.855Z,95546.28
2023-05-03T21:22:13.416Z,95553.44
2023-05-03T21:24:40.122Z,95553.78
2023-05-03T21:27:06.677Z,95541.06
2023-05-03T21:29:33.261Z,95539.31
2023-05-03T21:31:59.883Z,95547.28
2023-05-03T21:34:26.563Z,95540.50
2023-05-03T21:36:53.075Z,95546.97
2023-05-03T21:39:21.345Z,95533.66
2023-05-03T21:41:48.411Z,95533.78
2023-05-03T21:44:15.014Z,95535.09
2023-05-03T21:46:44.691Z,95535.44
2023-05-03T21:49:11.816Z,95530.50
2023-05-03T21:51:38.359Z,95534.19
2023-05-03T21:54:05.088Z,95536.16
2023-05-03T21:56:31.810Z,95540.59
2023-05-03T21:58:58.464Z,95535.38
2023-05-03T22:01:25.277Z,95528.84
2023-05-03T22:03:52.525Z,95526.53
2023-05-03T22:06:19.414Z,95527.47
2023-05-03T22:08:46.324Z,95520.69
2023-05-03T22:11:13.538Z,95524.34
2023-05-03T22:13:54.435Z,95521.19
2023-05-03T22:16:27.317Z,95523.09
2023-05-03T22:18:53.874Z,95517.25
2023-05-03T22:21:20.772Z,95509.88
2023-05-03T22:23:47.493Z,95514.34
2023-05-03T22:26:14.043Z,95514.59
2023-05-03T22:28:40.659Z,95512.13
2023-05-03T22:31:07.265Z,95512.94
2023-05-03T22:33:34.057Z,95516.34
2023-05-03T22:36:00.859Z,95513.78
2023-05-03T22:38:27.372Z,95512.81
2023-05-03T22:40:53.925Z,95514.13
2023-05-03T22:43:21.305Z,95512.16
2023-05-03T22:45:47.888Z,95516.88
2023-05-03T22:48:14.740Z,95514.22
2023-05-03T22:50:41.332Z,95512.94
2023-05-03T22:53:08.216Z,95516.56
2023-05-03T22:55:35.403Z,95511.00
2023-05-03T22:58:01.950Z,95511.44
2023-05-03T23:00:28.510Z,95509.69
2023-05-03T23:02:55.633Z,95505.03
2023-05-03T23:05:22.331Z,95510.84
2023-05-03T23:07:49.002Z,95507.59
2023-05-03T23:10:15.802Z,95503.50
2023-05-03T23:12:42.403Z,95509.84
2023-05-03T23:15:10.362Z,95504.63
2023-05-03T23:17:36.903Z,95503.09
2023-05-03T23:20:05.509Z,95498.78
2023-05-03T23:22:32.323Z,95500.16
2023-05-03T23:24:59.000Z,95503.09
2023-05-03T23:27:26.078Z,95505.22
2023-05-03T23:29:53.175Z,95494.84
2023-05-03T23:32:20.382Z,95496.22
2023-05-03T23:34:47.566Z,95497.97
2023-05-03T23:37:14.275Z,95496.44
2023-05-03T23:39:44.909Z,95489.91
2023-05-03T23:42:12.841Z,95491.22
2023-05-03T23:44:53.747Z,95490.38
2023-05-03T23:47:21.666Z,95496.00
2023-05-03T23:49:48.331Z,95495.41
2023-05-03T23:52:16.897Z,95490.66
2023-05-03T23:54:43.590Z,95488.44
2023-05-03T23:57:10.346Z,95480.75
2023-05-03T23:59:36.882Z,95480.38
